sensor_id;sensor_type;location;lat;lon;timestamp;P1;durP1;ratioP1;P2;durP2;ratioP2
12844;SDS011;68700;48.534;9.196;2023-08-12T00:02:31;5.23;;;4.73;;
12844;SDS011;68700;48.534;9.196;2023-08-12T00:05:53;5.03;;;4.53;;
12844;SDS011;68700;48.534;9.196;2023-08-12T00:09:16;5.73;;;4.47;;
12844;SDS011;68700;48.534;9.196;2023-08-12T00:12:38;4.93;;;4.27;;
12844;SDS011;68700;48.534;9.196;2023-08-12T00:16:02;5.20;;;4.50;;
12844;SDS011;68700;48.534;9.196;2023-08-12T00:19:24;5.47;;;4.40;;
12844;SDS011;68700;48.534;9.196;2023-08-12T00:22:46;5.33;;;4.50;;
12844;SDS011;68700;48.534;9.196;2023-08-12T00:26:08;7.00;;;5.13;;
12844;SDS011;68700;48.534;9.196;2023-08-12T00:29:30;6.73;;;5.23;;
12844;SDS011;68700;48.534;9.196;2023-08-12T00:32:53;5.10;;;4.60;;
12844;SDS011;68700;48.534;9.196;2023-08-12T00:36:15;4.67;;;4.27;;
12844;SDS011;68700;48.534;9.196;2023-08-12T00:39:37;4.77;;;4.37;;
12844;SDS011;68700;48.534;9.196;2023-08-12T00:42:58;6.27;;;4.90;;
12844;SDS011;68700;48.534;9.196;2023-08-12T00:46:20;6.23;;;4.50;;
12844;SDS011;68700;48.534;9.196;2023-08-12T00:49:43;6.70;;;4.80;;
12844;SDS011;68700;48.534;9.196;2023-08-12T00:53:05;4.90;;;4.40;;
12844;SDS011;68700;48.534;9.196;2023-08-12T00:56:28;4.87;;;4.37;;
12844;SDS011;68700;48.534;9.196;2023-08-12T00:59:50;5.60;;;4.30;;
12844;SDS011;68700;48.534;9.196;2023-08-12T01:03:12;5.13;;;4.63;;
12844;SDS011;68700;48.534;9.196;2023-08-12T01:06:35;6.30;;;5.07;;
12844;SDS011;68700;48.534;9.196;2023-08-12T01:09:58;4.83;;;4.43;;
12844;SDS011;68700;48.534;9.196;2023-08-12T01:13:22;7.80;;;5.17;;
12844;SDS011;68700;48.534;9.196;2023-08-12T01:16:56;6.43;;;5.40;;
12844;SDS011;68700;48.534;9.196;2023-08-12T01:20:23;6.73;;;5.43;;
12844;SDS011;68700;48.534;9.196;2023-08-12T01:23:47;7.97;;;4.90;;
12844;SDS011;68700;48.534;9.196;2023-08-12T01:27:10;5.80;;;4.80;;
12844;SDS011;68700;48.534;9.196;2023-08-12T01:30:33;5.43;;;4.87;;
12844;SDS011;68700;48.534;9.196;2023-08-12T01:34:02;5.17;;;4.60;;
12844;SDS011;68700;48.534;9.196;2023-08-12T01:37:33;5.47;;;4.10;;
12844;SDS011;68700;48.534;9.196;2023-08-12T01:40:57;6.53;;;4.73;;
12844;SDS011;68700;48.534;9.196;2023-08-12T01:44:21;6.90;;;5.20;;
12844;SDS011;68700;48.534;9.196;2023-08-12T01:47:43;5.83;;;4.80;;
12844;SDS011;68700;48.534;9.196;2023-08-12T01:51:05;4.97;;;4.40;;
12844;SDS011;68700;48.534;9.196;2023-08-12T01:54:27;5.60;;;4.90;;
12844;SDS011;68700;48.534;9.196;2023-08-12T01:57:54;6.00;;;4.87;;
12844;SDS011;68700;48.534;9.196;2023-08-12T02:01:16;5.30;;;4.80;;
12844;SDS011;68700;48.534;9.196;2023-08-12T02:04:39;6.67;;;4.93;;
12844;SDS011;68700;48.534;9.196;2023-08-12T02:08:03;6.60;;;5.40;;
12844;SDS011;68700;48.534;9.196;2023-08-12T02:11:25;7.40;;;5.30;;
12844;SDS011;68700;48.534;9.196;2023-08-12T02:14:48;5.80;;;5.23;;
12844;SDS011;68700;48.534;9.196;2023-08-12T02:18:10;7.03;;;5.53;;
12844;SDS011;68700;48.534;9.196;2023-08-12T02:21:32;6.90;;;5.37;;
12844;SDS011;68700;48.534;9.196;2023-08-12T02:24:54;6.33;;;5.30;;
12844;SDS011;68700;48.534;9.196;2023-08-12T02:28:15;6.87;;;5.37;;
12844;SDS011;68700;48.534;9.196;2023-08-12T02:31:39;7.63;;;5.90;;
12844;SDS011;68700;48.534;9.196;2023-08-12T02:35:00;7.53;;;5.60;;
12844;SDS011;68700;48.534;9.196;2023-08-12T02:38:22;7.77;;;5.50;;
12844;SDS011;68700;48.534;9.196;2023-08-12T02:41:44;7.00;;;4.87;;
12844;SDS011;68700;48.534;9.196;2023-08-12T02:45:06;7.50;;;5.80;;
12844;SDS011;68700;48.534;9.196;2023-08-12T02:48:30;7.93;;;5.43;;
12844;SDS011;68700;48.534;9.196;2023-08-12T02:51:51;10.97;;;6.07;;
12844;SDS011;68700;48.534;9.196;2023-08-12T02:55:13;8.43;;;6.20;;
12844;SDS011;68700;48.534;9.196;2023-08-12T02:58:35;7.87;;;6.10;;
12844;SDS011;68700;48.534;9.196;2023-08-12T03:01:57;7.57;;;5.70;;
12844;SDS011;68700;48.534;9.196;2023-08-12T03:05:21;5.60;;;5.10;;
12844;SDS011;68700;48.534;9.196;2023-08-12T03:08:43;7.57;;;5.87;;
12844;SDS011;68700;48.534;9.196;2023-08-12T03:12:05;8.07;;;5.57;;
12844;SDS011;68700;48.534;9.196;2023-08-12T03:15:27;7.47;;;5.50;;
12844;SDS011;68700;48.534;9.196;2023-08-12T03:18:49;7.13;;;5.50;;
12844;SDS011;68700;48.534;9.196;2023-08-12T03:22:12;6.47;;;5.83;;
12844;SDS011;68700;48.534;9.196;2023-08-12T03:25:34;6.87;;;6.10;;
12844;SDS011;68700;48.534;9.196;2023-08-12T03:28:56;6.67;;;5.97;;
12844;SDS011;68700;48.534;9.196;2023-08-12T03:32:18;7.47;;;6.10;;
12844;SDS011;68700;48.534;9.196;2023-08-12T03:35:40;8.13;;;5.63;;
12844;SDS011;68700;48.534;9.196;2023-08-12T03:39:07;6.17;;;5.57;;
12844;SDS011;68700;48.534;9.196;2023-08-12T03:42:29;7.00;;;5.90;;
12844;SDS011;68700;48.534;9.196;2023-08-12T03:45:51;6.67;;;5.97;;
12844;SDS011;68700;48.534;9.196;2023-08-12T03:49:12;7.17;;;5.80;;
12844;SDS011;68700;48.534;9.196;2023-08-12T03:52:34;7.67;;;6.37;;
12844;SDS011;68700;48.534;9.196;2023-08-12T03:55:57;8.10;;;6.33;;
12844;SDS011;68700;48.534;9.196;2023-08-12T03:59:19;6.70;;;5.70;;
12844;SDS011;68700;48.534;9.196;2023-08-12T04:02:41;9.47;;;7.00;;
12844;SDS011;68700;48.534;9.196;2023-08-12T04:06:03;7.97;;;6.70;;
12844;SDS011;68700;48.534;9.196;2023-08-12T04:09:25;7.03;;;6.33;;
12844;SDS011;68700;48.534;9.196;2023-08-12T04:12:48;7.50;;;6.80;;
12844;SDS011;68700;48.534;9.196;2023-08-12T04:16:10;8.10;;;6.23;;
12844;SDS011;68700;48.534;9.196;2023-08-12T04:19:31;7.77;;;6.10;;
12844;SDS011;68700;48.534;9.196;2023-08-12T04:22:53;6.70;;;6.00;;
12844;SDS011;68700;48.534;9.196;2023-08-12T04:26:15;7.30;;;6.23;;
12844;SDS011;68700;48.534;9.196;2023-08-12T04:29:38;7.00;;;5.83;;
12844;SDS011;68700;48.534;9.196;2023-08-12T04:33:00;7.37;;;6.30;;
12844;SDS011;68700;48.534;9.196;2023-08-12T04:36:22;8.37;;;6.53;;
12844;SDS011;68700;48.534;9.196;2023-08-12T04:39:44;7.00;;;6.30;;
12844;SDS011;68700;48.534;9.196;2023-08-12T04:43:07;6.80;;;6.20;;
12844;SDS011;68700;48.534;9.196;2023-08-12T04:46:30;6.60;;;6.00;;
12844;SDS011;68700;48.534;9.196;2023-08-12T04:49:52;6.73;;;6.03;;
12844;SDS011;68700;48.534;9.196;2023-08-12T04:53:14;7.23;;;5.73;;
12844;SDS011;68700;48.534;9.196;2023-08-12T04:56:36;7.63;;;6.00;;
12844;SDS011;68700;48.534;9.196;2023-08-12T04:59:58;9.07;;;5.87;;
12844;SDS011;68700;48.534;9.196;2023-08-12T05:03:21;6.10;;;5.43;;
12844;SDS011;68700;48.534;9.196;2023-08-12T05:06:43;7.00;;;5.70;;
12844;SDS011;68700;48.534;9.196;2023-08-12T05:10:06;6.80;;;5.70;;
12844;SDS011;68700;48.534;9.196;2023-08-12T05:13:28;6.10;;;5.50;;
12844;SDS011;68700;48.534;9.196;2023-08-12T05:16:50;7.33;;;5.67;;
12844;SDS011;68700;48.534;9.196;2023-08-12T05:20:14;6.10;;;5.50;;
12844;SDS011;68700;48.534;9.196;2023-08-12T05:23:36;9.47;;;5.67;;
12844;SDS011;68700;48.534;9.196;2023-08-12T05:26:58;5.93;;;5.37;;
12844;SDS011;68700;48.534;9.196;2023-08-12T05:30:20;7.13;;;5.30;;
12844;SDS011;68700;48.534;9.196;2023-08-12T05:33:42;6.70;;;5.70;;
12844;SDS011;68700;48.534;9.196;2023-08-12T05:37:05;7.90;;;5.33;;
12844;SDS011;68700;48.534;9.196;2023-08-12T05:40:27;5.83;;;5.23;;
12844;SDS011;68700;48.534;9.196;2023-08-12T05:43:49;7.70;;;5.00;;
12844;SDS011;68700;48.534;9.196;2023-08-12T05:47:10;6.50;;;5.20;;
12844;SDS011;68700;48.534;9.196;2023-08-12T05:50:38;6.80;;;5.60;;
12844;SDS011;68700;48.534;9.196;2023-08-12T05:54:01;5.27;;;4.67;;
12844;SDS011;68700;48.534;9.196;2023-08-12T05:57:23;5.60;;;5.10;;
12844;SDS011;68700;48.534;9.196;2023-08-12T06:00:45;5.73;;;4.97;;
12844;SDS011;68700;48.534;9.196;2023-08-12T06:04:07;8.50;;;4.43;;
12844;SDS011;68700;48.534;9.196;2023-08-12T06:07:29;5.70;;;5.10;;
12844;SDS011;68700;48.534;9.196;2023-08-12T06:10:52;5.47;;;4.80;;
12844;SDS011;68700;48.534;9.196;2023-08-12T06:14:14;6.03;;;4.60;;
12844;SDS011;68700;48.534;9.196;2023-08-12T06:17:36;5.40;;;4.90;;
12844;SDS011;68700;48.534;9.196;2023-08-12T06:20:57;6.90;;;4.60;;
12844;SDS011;68700;48.534;9.196;2023-08-12T06:24:19;4.87;;;4.40;;
12844;SDS011;68700;48.534;9.196;2023-08-12T06:27:43;5.13;;;4.63;;
12844;SDS011;68700;48.534;9.196;2023-08-12T06:31:05;5.37;;;4.23;;
12844;SDS011;68700;48.534;9.196;2023-08-12T06:34:27;6.70;;;5.00;;
12844;SDS011;68700;48.534;9.196;2023-08-12T06:37:49;5.57;;;4.57;;
12844;SDS011;68700;48.534;9.196;2023-08-12T06:41:11;4.93;;;4.53;;
12844;SDS011;68700;48.534;9.196;2023-08-12T06:44:34;5.03;;;4.50;;
12844;SDS011;68700;48.534;9.196;2023-08-12T06:47:56;6.90;;;4.20;;
12844;SDS011;68700;48.534;9.196;2023-08-12T06:51:17;5.60;;;4.60;;
12844;SDS011;68700;48.534;9.196;2023-08-12T06:54:39;7.20;;;4.33;;
12844;SDS011;68700;48.534;9.196;2023-08-12T06:58:01;5.00;;;4.60;;
12844;SDS011;68700;48.534;9.196;2023-08-12T07:01:25;4.33;;;4.00;;
12844;SDS011;68700;48.534;9.196;2023-08-12T07:04:47;6.73;;;4.37;;
12844;SDS011;68700;48.534;9.196;2023-08-12T07:08:08;6.27;;;4.20;;
12844;SDS011;68700;48.534;9.196;2023-08-12T07:11:30;5.37;;;4.10;;
12844;SDS011;68700;48.534;9.196;2023-08-12T07:14:52;4.77;;;4.23;;
12844;SDS011;68700;48.534;9.196;2023-08-12T07:18:15;5.53;;;4.67;;
12844;SDS011;68700;48.534;9.196;2023-08-12T07:21:37;5.03;;;4.47;;
12844;SDS011;68700;48.534;9.196;2023-08-12T07:24:59;6.78;;;5.38;;
12844;SDS011;68700;48.534;9.196;2023-08-12T07:28:21;5.93;;;5.37;;
12844;SDS011;68700;48.534;9.196;2023-08-12T07:31:43;5.40;;;4.77;;
12844;SDS011;68700;48.534;9.196;2023-08-12T07:35:06;7.07;;;4.87;;
12844;SDS011;68700;48.534;9.196;2023-08-12T07:38:29;5.77;;;4.73;;
12844;SDS011;68700;48.534;9.196;2023-08-12T07:41:50;5.13;;;4.63;;
12844;SDS011;68700;48.534;9.196;2023-08-12T07:45:12;4.85;;;4.43;;
12844;SDS011;68700;48.534;9.196;2023-08-12T07:48:34;4.97;;;4.45;;
12844;SDS011;68700;48.534;9.196;2023-08-12T07:51:58;5.13;;;4.70;;
12844;SDS011;68700;48.534;9.196;2023-08-12T07:55:20;5.43;;;4.28;;
12844;SDS011;68700;48.534;9.196;2023-08-12T07:58:42;5.63;;;4.55;;
12844;SDS011;68700;48.534;9.196;2023-08-12T08:02:05;5.90;;;4.68;;
12844;SDS011;68700;48.534;9.196;2023-08-12T08:05:27;5.57;;;4.78;;
12844;SDS011;68700;48.534;9.196;2023-08-12T08:08:50;5.75;;;4.93;;
12844;SDS011;68700;48.534;9.196;2023-08-12T08:12:12;5.00;;;4.43;;
12844;SDS011;68700;48.534;9.196;2023-08-12T08:15:34;9.38;;;4.30;;
12844;SDS011;68700;48.534;9.196;2023-08-12T08:18:56;4.55;;;4.15;;
12844;SDS011;68700;48.534;9.196;2023-08-12T08:22:18;4.53;;;4.13;;
12844;SDS011;68700;48.534;9.196;2023-08-12T08:25:41;4.40;;;4.00;;
12844;SDS011;68700;48.534;9.196;2023-08-12T08:29:03;5.70;;;4.57;;
12844;SDS011;68700;48.534;9.196;2023-08-12T08:32:25;4.63;;;4.32;;
12844;SDS011;68700;48.534;9.196;2023-08-12T08:35:47;5.18;;;4.50;;
12844;SDS011;68700;48.534;9.196;2023-08-12T08:39:09;5.13;;;4.60;;
12844;SDS011;68700;48.534;9.196;2023-08-12T08:42:32;4.75;;;4.40;;
12844;SDS011;68700;48.534;9.196;2023-08-12T08:45:54;5.07;;;4.63;;
12844;SDS011;68700;48.534;9.196;2023-08-12T08:49:17;4.93;;;4.53;;
12844;SDS011;68700;48.534;9.196;2023-08-12T08:52:41;5.20;;;4.70;;
12844;SDS011;68700;48.534;9.196;2023-08-12T08:56:04;6.05;;;4.40;;
12844;SDS011;68700;48.534;9.196;2023-08-12T08:59:28;5.15;;;4.28;;
12844;SDS011;68700;48.534;9.196;2023-08-12T09:02:50;4.63;;;4.20;;
12844;SDS011;68700;48.534;9.196;2023-08-12T09:06:14;7.13;;;6.43;;
12844;SDS011;68700;48.534;9.196;2023-08-12T09:09:35;6.65;;;4.63;;
12844;SDS011;68700;48.534;9.196;2023-08-12T09:12:58;5.05;;;4.20;;
12844;SDS011;68700;48.534;9.196;2023-08-12T09:16:23;10.27;;;9.35;;
12844;SDS011;68700;48.534;9.196;2023-08-12T09:19:45;7.05;;;5.10;;
12844;SDS011;68700;48.534;9.196;2023-08-12T09:23:07;5.43;;;4.50;;
12844;SDS011;68700;48.534;9.196;2023-08-12T09:26:30;4.78;;;3.72;;
12844;SDS011;68700;48.534;9.196;2023-08-12T09:29:55;6.93;;;6.30;;
12844;SDS011;68700;48.534;9.196;2023-08-12T09:33:23;5.03;;;4.38;;
12844;SDS011;68700;48.534;9.196;2023-08-12T09:36:46;4.22;;;3.80;;
12844;SDS011;68700;48.534;9.196;2023-08-12T09:40:08;4.80;;;4.20;;
12844;SDS011;68700;48.534;9.196;2023-08-12T09:43:31;4.47;;;4.07;;
12844;SDS011;68700;48.534;9.196;2023-08-12T09:46:56;5.28;;;3.72;;
12844;SDS011;68700;48.534;9.196;2023-08-12T09:50:21;4.47;;;4.13;;
12844;SDS011;68700;48.534;9.196;2023-08-12T09:53:44;4.57;;;4.18;;
12844;SDS011;68700;48.534;9.196;2023-08-12T09:57:08;4.85;;;4.18;;
12844;SDS011;68700;48.534;9.196;2023-08-12T10:43:31;5.15;;;4.20;;
12844;SDS011;68700;48.534;9.196;2023-08-12T10:47:10;11.32;;;4.25;;
12844;SDS011;68700;48.534;9.196;2023-08-12T10:50:32;5.10;;;4.57;;
12844;SDS011;68700;48.534;9.196;2023-08-12T10:53:54;5.60;;;4.47;;
12844;SDS011;68700;48.534;9.196;2023-08-12T10:57:52;5.20;;;4.72;;
12844;SDS011;68700;48.534;9.196;2023-08-12T11:01:17;7.38;;;4.75;;
12844;SDS011;68700;48.534;9.196;2023-08-12T11:04:39;4.13;;;3.83;;
12844;SDS011;68700;48.534;9.196;2023-08-12T11:08:03;4.60;;;3.90;;
12844;SDS011;68700;48.534;9.196;2023-08-12T11:11:27;5.72;;;3.95;;
12844;SDS011;68700;48.534;9.196;2023-08-12T11:14:49;4.70;;;3.95;;
12844;SDS011;68700;48.534;9.196;2023-08-12T11:18:16;4.72;;;3.90;;
12844;SDS011;68700;48.534;9.196;2023-08-12T11:21:40;4.30;;;3.58;;
12844;SDS011;68700;48.534;9.196;2023-08-12T11:25:03;3.83;;;3.30;;
12844;SDS011;68700;48.534;9.196;2023-08-12T11:28:28;4.03;;;3.55;;
12844;SDS011;68700;48.534;9.196;2023-08-12T11:31:49;3.20;;;2.90;;
12844;SDS011;68700;48.534;9.196;2023-08-12T11:35:14;2.63;;;2.42;;
12844;SDS011;68700;48.534;9.196;2023-08-12T11:38:37;4.22;;;2.88;;
12844;SDS011;68700;48.534;9.196;2023-08-12T11:41:59;3.10;;;2.90;;
12844;SDS011;68700;48.534;9.196;2023-08-12T11:45:21;3.50;;;3.20;;
12844;SDS011;68700;48.534;9.196;2023-08-12T11:48:44;5.85;;;3.38;;
12844;SDS011;68700;48.534;9.196;2023-08-12T11:52:08;6.05;;;3.25;;
12844;SDS011;68700;48.534;9.196;2023-08-12T11:55:31;4.03;;;3.17;;
12844;SDS011;68700;48.534;9.196;2023-08-12T11:58:53;3.67;;;3.33;;
12844;SDS011;68700;48.534;9.196;2023-08-12T12:02:15;6.30;;;3.50;;
12844;SDS011;68700;48.534;9.196;2023-08-12T12:05:37;3.72;;;3.30;;
12844;SDS011;68700;48.534;9.196;2023-08-12T12:09:03;4.30;;;2.90;;
12844;SDS011;68700;48.534;9.196;2023-08-12T12:12:26;4.07;;;2.80;;
12844;SDS011;68700;48.534;9.196;2023-08-12T12:15:48;4.93;;;3.10;;
12844;SDS011;68700;48.534;9.196;2023-08-12T12:19:12;4.03;;;2.90;;
12844;SDS011;68700;48.534;9.196;2023-08-12T12:22:37;3.50;;;3.20;;
12844;SDS011;68700;48.534;9.196;2023-08-12T12:26:01;4.75;;;3.33;;
12844;SDS011;68700;48.534;9.196;2023-08-12T12:29:23;3.73;;;3.13;;
12844;SDS011;68700;48.534;9.196;2023-08-12T12:32:45;4.47;;;2.90;;
12844;SDS011;68700;48.534;9.196;2023-08-12T12:36:07;4.43;;;2.83;;
12844;SDS011;68700;48.534;9.196;2023-08-12T12:39:29;5.13;;;2.90;;
12844;SDS011;68700;48.534;9.196;2023-08-12T12:42:52;3.60;;;2.90;;
12844;SDS011;68700;48.534;9.196;2023-08-12T12:46:14;3.60;;;3.27;;
12844;SDS011;68700;48.534;9.196;2023-08-12T12:49:37;3.73;;;2.97;;
12844;SDS011;68700;48.534;9.196;2023-08-12T12:52:59;6.27;;;3.63;;
12844;SDS011;68700;48.534;9.196;2023-08-12T12:56:20;12.67;;;5.33;;
12844;SDS011;68700;48.534;9.196;2023-08-12T13:04:00;8.47;;;3.83;;
12844;SDS011;68700;48.534;9.196;2023-08-12T13:07:22;4.83;;;3.33;;
12844;SDS011;68700;48.534;9.196;2023-08-12T13:10:44;5.93;;;3.77;;
12844;SDS011;68700;48.534;9.196;2023-08-12T13:14:06;6.03;;;3.50;;
12844;SDS011;68700;48.534;9.196;2023-08-12T13:17:28;5.60;;;4.40;;
12844;SDS011;68700;48.534;9.196;2023-08-12T13:20:51;4.77;;;4.10;;
12844;SDS011;68700;48.534;9.196;2023-08-12T13:24:13;6.73;;;4.57;;
12844;SDS011;68700;48.534;9.196;2023-08-12T13:27:35;5.00;;;4.27;;
12844;SDS011;68700;48.534;9.196;2023-08-12T13:30:57;5.57;;;4.20;;
12844;SDS011;68700;48.534;9.196;2023-08-12T13:34:19;4.73;;;3.47;;
12844;SDS011;68700;48.534;9.196;2023-08-12T13:37:42;4.77;;;3.70;;
12844;SDS011;68700;48.534;9.196;2023-08-12T13:41:03;7.17;;;3.43;;
12844;SDS011;68700;48.534;9.196;2023-08-12T13:44:25;7.60;;;3.77;;
12844;SDS011;68700;48.534;9.196;2023-08-12T13:47:47;4.97;;;3.17;;
12844;SDS011;68700;48.534;9.196;2023-08-12T13:51:09;7.20;;;3.43;;
12844;SDS011;68700;48.534;9.196;2023-08-12T13:54:33;5.73;;;3.30;;
12844;SDS011;68700;48.534;9.196;2023-08-12T13:57:55;4.73;;;3.00;;
12844;SDS011;68700;48.534;9.196;2023-08-12T14:01:16;4.97;;;2.90;;
12844;SDS011;68700;48.534;9.196;2023-08-12T14:04:38;6.83;;;3.10;;
12844;SDS011;68700;48.534;9.196;2023-08-12T14:08:00;3.83;;;3.00;;
12844;SDS011;68700;48.534;9.196;2023-08-12T14:11:23;4.25;;;3.30;;
12844;SDS011;68700;48.534;9.196;2023-08-12T14:14:46;3.58;;;3.05;;
12844;SDS011;68700;48.534;9.196;2023-08-12T14:18:08;3.92;;;3.25;;
12844;SDS011;68700;48.534;9.196;2023-08-12T14:21:30;3.83;;;3.40;;
12844;SDS011;68700;48.534;9.196;2023-08-12T14:24:52;5.13;;;3.17;;
12844;SDS011;68700;48.534;9.196;2023-08-12T14:28:15;3.75;;;3.38;;
12844;SDS011;68700;48.534;9.196;2023-08-12T14:31:37;5.65;;;3.65;;
12844;SDS011;68700;48.534;9.196;2023-08-12T14:34:58;3.65;;;3.35;;
12844;SDS011;68700;48.534;9.196;2023-08-12T14:38:20;3.72;;;3.30;;
12844;SDS011;68700;48.534;9.196;2023-08-12T14:41:42;3.88;;;3.40;;
12844;SDS011;68700;48.534;9.196;2023-08-12T14:45:06;4.53;;;3.53;;
12844;SDS011;68700;48.534;9.196;2023-08-12T14:48:30;3.58;;;3.08;;
12844;SDS011;68700;48.534;9.196;2023-08-12T14:51:54;5.95;;;3.50;;
12844;SDS011;68700;48.534;9.196;2023-08-12T14:55:16;4.35;;;3.47;;
12844;SDS011;68700;48.534;9.196;2023-08-12T14:58:38;5.70;;;3.22;;
12844;SDS011;68700;48.534;9.196;2023-08-12T15:02:01;4.28;;;3.30;;
12844;SDS011;68700;48.534;9.196;2023-08-12T15:05:26;4.07;;;3.10;;
12844;SDS011;68700;48.534;9.196;2023-08-12T15:08:48;3.70;;;3.40;;
12844;SDS011;68700;48.534;9.196;2023-08-12T15:12:10;4.70;;;3.40;;
12844;SDS011;68700;48.534;9.196;2023-08-12T15:15:32;3.42;;;3.13;;
12844;SDS011;68700;48.534;9.196;2023-08-12T15:18:55;4.00;;;3.28;;
12844;SDS011;68700;48.534;9.196;2023-08-12T15:22:17;3.88;;;3.40;;
12844;SDS011;68700;48.534;9.196;2023-08-12T15:25:42;3.90;;;3.38;;
12844;SDS011;68700;48.534;9.196;2023-08-12T15:29:04;3.65;;;3.00;;
12844;SDS011;68700;48.534;9.196;2023-08-12T15:32:26;3.70;;;3.30;;
12844;SDS011;68700;48.534;9.196;2023-08-12T15:35:49;5.85;;;3.20;;
12844;SDS011;68700;48.534;9.196;2023-08-12T15:39:11;3.58;;;3.00;;
12844;SDS011;68700;48.534;9.196;2023-08-12T15:42:42;3.47;;;3.00;;
12844;SDS011;68700;48.534;9.196;2023-08-12T15:46:06;3.30;;;3.00;;
12844;SDS011;68700;48.534;9.196;2023-08-12T15:49:30;3.88;;;3.20;;
12844;SDS011;68700;48.534;9.196;2023-08-12T15:52:57;4.35;;;3.10;;
12844;SDS011;68700;48.534;9.196;2023-08-12T15:56:19;7.68;;;5.45;;
12844;SDS011;68700;48.534;9.196;2023-08-12T15:59:41;3.78;;;3.47;;
12844;SDS011;68700;48.534;9.196;2023-08-12T16:03:04;4.60;;;3.10;;
12844;SDS011;68700;48.534;9.196;2023-08-12T16:06:26;3.05;;;2.80;;
12844;SDS011;68700;48.534;9.196;2023-08-12T16:09:49;3.43;;;3.10;;
12844;SDS011;68700;48.534;9.196;2023-08-12T16:13:11;5.97;;;5.47;;
12844;SDS011;68700;48.534;9.196;2023-08-12T16:16:33;4.50;;;4.10;;
12844;SDS011;68700;48.534;9.196;2023-08-12T16:19:55;3.63;;;3.30;;
12844;SDS011;68700;48.534;9.196;2023-08-12T16:23:17;6.50;;;4.00;;
12844;SDS011;68700;48.534;9.196;2023-08-12T16:26:40;4.73;;;3.50;;
12844;SDS011;68700;48.534;9.196;2023-08-12T16:30:02;3.77;;;3.40;;
12844;SDS011;68700;48.534;9.196;2023-08-12T16:33:25;3.60;;;3.30;;
12844;SDS011;68700;48.534;9.196;2023-08-12T16:36:46;4.27;;;3.80;;
12844;SDS011;68700;48.534;9.196;2023-08-12T16:40:08;5.27;;;4.60;;
12844;SDS011;68700;48.534;9.196;2023-08-12T16:43:32;4.23;;;3.83;;
12844;SDS011;68700;48.534;9.196;2023-08-12T16:46:55;7.33;;;3.97;;
12844;SDS011;68700;48.534;9.196;2023-08-12T16:50:17;6.00;;;4.40;;
12844;SDS011;68700;48.534;9.196;2023-08-12T16:53:38;4.80;;;4.30;;
12844;SDS011;68700;48.534;9.196;2023-08-12T16:57:00;6.20;;;4.60;;
12844;SDS011;68700;48.534;9.196;2023-08-12T17:00:23;8.00;;;4.33;;
12844;SDS011;68700;48.534;9.196;2023-08-12T17:03:45;5.03;;;4.13;;
12844;SDS011;68700;48.534;9.196;2023-08-12T17:07:07;5.47;;;4.43;;
12844;SDS011;68700;48.534;9.196;2023-08-12T17:10:29;5.53;;;4.77;;
12844;SDS011;68700;48.534;9.196;2023-08-12T17:13:52;4.83;;;4.43;;
12844;SDS011;68700;48.534;9.196;2023-08-12T17:17:15;5.97;;;4.57;;
12844;SDS011;68700;48.534;9.196;2023-08-12T17:20:37;5.33;;;4.83;;
12844;SDS011;68700;48.534;9.196;2023-08-12T17:23:59;5.23;;;4.60;;
12844;SDS011;68700;48.534;9.196;2023-08-12T17:27:21;6.80;;;4.97;;
12844;SDS011;68700;48.534;9.196;2023-08-12T17:30:43;6.17;;;4.77;;
12844;SDS011;68700;48.534;9.196;2023-08-12T17:34:06;6.10;;;4.87;;
12844;SDS011;68700;48.534;9.196;2023-08-12T17:37:28;5.60;;;5.03;;
12844;SDS011;68700;48.534;9.196;2023-08-12T17:40:55;5.97;;;5.20;;
12844;SDS011;68700;48.534;9.196;2023-08-12T17:44:17;6.13;;;5.53;;
12844;SDS011;68700;48.534;9.196;2023-08-12T17:47:39;5.57;;;5.07;;
12844;SDS011;68700;48.534;9.196;2023-08-12T17:51:02;6.20;;;5.20;;
12844;SDS011;68700;48.534;9.196;2023-08-12T17:54:24;5.83;;;5.13;;
12844;SDS011;68700;48.534;9.196;2023-08-12T17:57:48;7.50;;;5.10;;
12844;SDS011;68700;48.534;9.196;2023-08-12T18:01:10;6.13;;;5.20;;
12844;SDS011;68700;48.534;9.196;2023-08-12T18:04:33;5.70;;;5.20;;
12844;SDS011;68700;48.534;9.196;2023-08-12T18:07:56;5.63;;;5.03;;
12844;SDS011;68700;48.534;9.196;2023-08-12T18:11:17;5.43;;;4.30;;
12844;SDS011;68700;48.534;9.196;2023-08-12T18:14:40;7.27;;;4.60;;
12844;SDS011;68700;48.534;9.196;2023-08-12T18:18:01;6.27;;;3.90;;
12844;SDS011;68700;48.534;9.196;2023-08-12T18:21:24;4.10;;;3.60;;
12844;SDS011;68700;48.534;9.196;2023-08-12T18:24:47;5.73;;;4.27;;
12844;SDS011;68700;48.534;9.196;2023-08-12T18:28:08;4.87;;;3.50;;
12844;SDS011;68700;48.534;9.196;2023-08-12T18:31:30;5.30;;;4.00;;
12844;SDS011;68700;48.534;9.196;2023-08-12T18:34:52;3.97;;;3.63;;
12844;SDS011;68700;48.534;9.196;2023-08-12T18:38:14;5.93;;;3.77;;
12844;SDS011;68700;48.534;9.196;2023-08-12T18:41:37;4.37;;;3.77;;
12844;SDS011;68700;48.534;9.196;2023-08-12T18:44:59;5.43;;;3.87;;
12844;SDS011;68700;48.534;9.196;2023-08-12T18:48:21;4.63;;;3.80;;
12844;SDS011;68700;48.534;9.196;2023-08-12T18:51:43;4.87;;;4.07;;
12844;SDS011;68700;48.534;9.196;2023-08-12T18:55:05;4.70;;;3.90;;
12844;SDS011;68700;48.534;9.196;2023-08-12T18:58:31;5.50;;;3.70;;
12844;SDS011;68700;48.534;9.196;2023-08-12T19:01:53;5.13;;;3.80;;
12844;SDS011;68700;48.534;9.196;2023-08-12T19:05:15;4.03;;;3.60;;
12844;SDS011;68700;48.534;9.196;2023-08-12T19:08:37;4.47;;;3.60;;
12844;SDS011;68700;48.534;9.196;2023-08-12T19:11:58;4.40;;;3.30;;
12844;SDS011;68700;48.534;9.196;2023-08-12T19:15:22;4.33;;;3.37;;
12844;SDS011;68700;48.534;9.196;2023-08-12T19:18:43;4.30;;;3.53;;
12844;SDS011;68700;48.534;9.196;2023-08-12T19:22:05;3.43;;;3.10;;
12844;SDS011;68700;48.534;9.196;2023-08-12T19:25:27;4.33;;;3.57;;
12844;SDS011;68700;48.534;9.196;2023-08-12T19:28:50;6.17;;;3.70;;
12844;SDS011;68700;48.534;9.196;2023-08-12T19:32:13;4.33;;;3.70;;
12844;SDS011;68700;48.534;9.196;2023-08-12T19:35:35;5.10;;;4.03;;
12844;SDS011;68700;48.534;9.196;2023-08-12T19:38:57;4.20;;;3.80;;
12844;SDS011;68700;48.534;9.196;2023-08-12T19:42:19;4.57;;;3.83;;
12844;SDS011;68700;48.534;9.196;2023-08-12T19:45:41;6.13;;;3.80;;
12844;SDS011;68700;48.534;9.196;2023-08-12T19:49:04;3.90;;;3.60;;
12844;SDS011;68700;48.534;9.196;2023-08-12T19:52:26;4.40;;;3.30;;
12844;SDS011;68700;48.534;9.196;2023-08-12T19:55:47;6.20;;;4.20;;
12844;SDS011;68700;48.534;9.196;2023-08-12T19:59:09;5.33;;;4.30;;
12844;SDS011;68700;48.534;9.196;2023-08-12T20:02:31;5.30;;;4.23;;
12844;SDS011;68700;48.534;9.196;2023-08-12T20:05:56;4.77;;;3.77;;
12844;SDS011;68700;48.534;9.196;2023-08-12T20:09:18;5.63;;;3.57;;
12844;SDS011;68700;48.534;9.196;2023-08-12T20:12:40;4.33;;;3.97;;
12844;SDS011;68700;48.534;9.196;2023-08-12T20:16:02;6.10;;;4.00;;
12844;SDS011;68700;48.534;9.196;2023-08-12T20:19:24;6.07;;;4.30;;
12844;SDS011;68700;48.534;9.196;2023-08-12T20:22:47;5.27;;;4.00;;
12844;SDS011;68700;48.534;9.196;2023-08-12T20:26:09;4.80;;;4.30;;
12844;SDS011;68700;48.534;9.196;2023-08-12T20:29:31;4.03;;;3.67;;
12844;SDS011;68700;48.534;9.196;2023-08-12T20:32:53;4.23;;;3.83;;
12844;SDS011;68700;48.534;9.196;2023-08-12T20:36:15;4.87;;;3.40;;
12844;SDS011;68700;48.534;9.196;2023-08-12T20:39:38;4.37;;;3.43;;
12844;SDS011;68700;48.534;9.196;2023-08-12T20:43:00;3.50;;;2.90;;
12844;SDS011;68700;48.534;9.196;2023-08-12T20:46:21;3.73;;;3.03;;
12844;SDS011;68700;48.534;9.196;2023-08-12T20:49:44;3.67;;;2.93;;
12844;SDS011;68700;48.534;9.196;2023-08-12T20:53:05;3.67;;;3.37;;
12844;SDS011;68700;48.534;9.196;2023-08-12T20:56:28;3.40;;;3.10;;
12844;SDS011;68700;48.534;9.196;2023-08-12T20:59:50;3.80;;;3.00;;
12844;SDS011;68700;48.534;9.196;2023-08-12T21:03:12;5.97;;;3.30;;
12844;SDS011;68700;48.534;9.196;2023-08-12T21:06:34;5.47;;;3.57;;
12844;SDS011;68700;48.534;9.196;2023-08-12T21:09:56;4.27;;;3.50;;